Time;durP1;ratioP1;P1;durP2;ratioP2;P2;SDS_P1;SDS_P2;PMS_P1;PMS_P2;Temp;Humidity;BMP_temperature;BMP_pressure;BME280_temperature;BME280_humidity;BME280_pressure;Samples;Min_cycle;Max_cycle;Signal;HPM_P1;HPM_P2
2022/09/10 00:02:19;;;;;;;;;;;15.10;99.90;;;;;;5043920;28;19931;-77
2022/09/10 00:04:45;;;;;;;;;;;15.10;99.90;;;;;;5041984;28;19929;-77
2022/09/10 00:07:11;;;;;;;;;;;15.10;99.90;;;;;;5058247;28;19932;-77
2022/09/10 00:09:37;;;;;;;;;;;15.10;99.90;;;;;;5074792;28;20380;-77
2022/09/10 00:12:03;;;;;;;;;;;15.30;99.90;;;;;;5074099;28;19939;-77
2022/09/10 00:14:28;;;;;;;;;;;15.10;99.90;;;;;;5058410;28;19924;-77
2022/09/10 00:16:54;;;;;;;;;;;15.10;99.90;;;;;;5057960;28;19929;-77
2022/09/10 00:19:20;;;;;;;;;;;15.10;99.90;;;;;;5060551;28;19931;-77
2022/09/10 00:21:46;;;;;;;;;;;15.10;99.90;;;;;;5077575;28;19947;-78
2022/09/10 00:24:12;;;;;;;;;;;15.10;99.90;;;;;;5094835;28;20407;-78
2022/09/10 00:26:38;;;;;;;;;;;15.10;99.90;;;;;;5044978;28;20345;-78
2022/09/10 00:29:05;;;;;;;;;;;15.10;99.90;;;;;;5078019;28;19934;-78
2022/09/10 00:31:31;;;;;;;;;;;15.10;99.90;;;;;;5096071;28;19932;-78
2022/09/10 00:33:58;;;;;;;;;;;15.10;99.90;;;;;;5075588;28;19924;-78
2022/09/10 00:36:25;;;;;;;;;;;15.10;99.90;;;;;;5077657;28;19928;-77
2022/09/10 00:38:51;;;;;;;;;;;15.10;99.90;;;;;;5077580;28;20002;-77
2022/09/10 00:41:18;;;;;;;;;;;15.20;99.90;;;;;;5077650;28;19924;-78
2022/09/10 00:43:50;;;;;;;;;;;15.10;99.90;;;;;;5066607;28;20295;-77
2022/09/10 00:46:24;;;;;;;;;;;15.20;99.90;;;;;;5092864;28;19931;-77
2022/09/10 00:48:51;;;;;;;;;;;15.10;99.90;;;;;;5061121;28;19924;-77
2022/09/10 00:51:18;;;;;;;;;;;15.20;99.90;;;;;;5043944;28;20330;-77
2022/09/10 00:53:44;;;;;;;;;;;15.20;99.90;;;;;;5054579;28;20295;-77
2022/09/10 00:56:10;;;;;;;;;;;15.20;99.90;;;;;;5091888;28;20287;-78
2022/09/10 00:58:35;;;;;;;;;;;15.20;99.90;;;;;;5060728;28;19924;-77
2022/09/10 01:01:01;;;;;;;;;;;15.20;99.90;;;;;;5060930;28;20377;-77
2022/09/10 01:03:31;;;;;;;;;;;15.10;99.90;;;;;;5060093;28;19985;-78
2022/09/10 01:05:57;;;;;;;;;;;15.20;99.90;;;;;;5076595;28;20021;-77
2022/09/10 01:08:22;;;;;;;;;;;15.20;99.90;;;;;;5076764;28;20382;-78
2022/09/10 01:10:56;;;;;;;;;;;15.20;99.90;;;;;;5060784;28;19924;-77
2022/09/10 01:13:25;;;;;;;;;;;15.20;99.90;;;;;;5077091;28;20015;-77
2022/09/10 01:16:10;;;;;;;;;;;15.20;99.90;;;;;;5063151;28;19926;-76
2022/09/10 01:18:43;;;;;;;;;;;15.20;99.90;;;;;;5095070;28;19924;-77
2022/09/10 01:21:15;;;;;;;;;;;15.30;99.90;;;;;;5060266;28;19924;-77
2022/09/10 01:23:41;;;;;;;;;;;15.20;99.90;;;;;;5060417;28;19926;-77
2022/09/10 01:26:15;;;;;;;;;;;15.30;99.90;;;;;;5059767;28;19935;-78
2022/09/10 01:28:47;;;;;;;;;;;15.30;99.90;;;;;;5077156;28;19924;-77
2022/09/10 01:31:17;;;;;;;;;;;15.30;99.90;;;;;;5100470;28;19931;-78
2022/09/10 01:33:50;;;;;;;;;;;15.30;99.90;;;;;;5076978;28;20322;-77
2022/09/10 01:36:19;;;;;;;;;;;15.30;99.90;;;;;;5070341;28;19931;-77
2022/09/10 01:38:45;;;;;;;;;;;15.30;99.90;;;;;;5059990;28;19927;-77
2022/09/10 01:41:11;;;;;;;;;;;15.30;99.90;;;;;;5110392;28;20278;-77
2022/09/10 01:43:37;;;;;;;;;;;15.40;99.90;;;;;;5059854;28;19924;-77
2022/09/10 01:46:29;;;;;;;;;;;15.30;99.90;;;;;;5059184;28;20023;-77
2022/09/10 01:49:12;;;;;;;;;;;15.40;99.90;;;;;;5043914;28;20325;-77
2022/09/10 01:51:41;;;;;;;;;;;15.40;99.90;;;;;;5076749;28;19966;-77
2022/09/10 01:54:13;;;;;;;;;;;15.40;99.90;;;;;;5076543;28;19928;-77
2022/09/10 01:56:41;;;;;;;;;;;15.40;99.90;;;;;;5075812;28;20035;-77
2022/09/10 01:59:33;;;;;;;;;;;15.40;99.90;;;;;;5093127;28;19924;-77
2022/09/10 02:02:03;;;;;;;;;;;15.40;99.90;;;;;;5066542;28;19924;-77
2022/09/10 02:04:29;;;;;;;;;;;15.40;99.90;;;;;;5076423;28;19924;-77
2022/09/10 02:06:55;;;;;;;;;;;15.40;99.90;;;;;;5056482;28;19931;-77
2022/09/10 02:09:21;;;;;;;;;;;15.40;99.90;;;;;;5092237;28;19932;-77
2022/09/10 02:11:48;;;;;;;;;;;15.30;99.90;;;;;;5070685;28;19924;-77
2022/09/10 02:14:14;;;;;;;;;;;15.30;99.90;;;;;;5075884;28;20019;-78
2022/09/10 02:16:41;;;;;;;;;;;15.30;99.90;;;;;;5059415;28;19931;-77
2022/09/10 02:19:07;;;;;;;;;;;15.30;99.90;;;;;;5074829;28;19979;-77
2022/09/10 02:21:34;;;;;;;;;;;15.30;99.90;;;;;;5075466;28;19968;-77
2022/09/10 02:24:04;;;;;;;;;;;15.30;99.90;;;;;;5075937;28;20367;-77
2022/09/10 02:26:32;;;;;;;;;;;15.30;99.90;;;;;;5042953;28;20330;-77
2022/09/10 02:28:58;;;;;;;;;;;15.30;99.90;;;;;;5075156;28;19924;-77
2022/09/10 02:31:24;;;;;;;;;;;15.30;99.90;;;;;;5058861;28;19989;-77
2022/09/10 02:33:50;;;;;;;;;;;15.20;99.90;;;;;;5056372;28;19924;-77
2022/09/10 02:36:15;;;;;;;;;;;15.20;99.90;;;;;;5073104;28;19932;-78
2022/09/10 02:38:41;;;;;;;;;;;15.10;99.90;;;;;;5058203;28;19928;-77
2022/09/10 02:41:08;;;;;;;;;;;15.20;99.90;;;;;;5058671;28;19930;-77
2022/09/10 02:43:36;;;;;;;;;;;15.20;99.90;;;;;;5098419;28;20066;-77
2022/09/10 02:46:06;;;;;;;;;;;15.20;99.90;;;;;;5041684;28;19978;-77
2022/09/10 02:48:31;;;;;;;;;;;15.30;99.90;;;;;;5109398;28;19963;-77
2022/09/10 02:50:57;;;;;;;;;;;15.30;99.90;;;;;;5109285;28;20393;-77
2022/09/10 02:53:22;;;;;;;;;;;15.30;99.90;;;;;;5075153;28;19931;-77
2022/09/10 02:55:48;;;;;;;;;;;15.30;99.90;;;;;;5092412;28;19934;-77
2022/09/10 02:58:14;;;;;;;;;;;15.20;99.90;;;;;;5059385;28;19924;-77
2022/09/10 03:00:40;;;;;;;;;;;15.20;99.90;;;;;;5088934;28;20356;-77
2022/09/10 03:03:06;;;;;;;;;;;15.20;99.90;;;;;;5089137;28;19978;-77
2022/09/10 03:05:31;;;;;;;;;;;15.20;99.90;;;;;;5038651;28;20284;-77
2022/09/10 03:07:59;;;;;;;;;;;15.20;99.90;;;;;;5038951;28;19964;-77
2022/09/10 03:10:24;;;;;;;;;;;15.20;99.90;;;;;;5055235;28;19924;-78
2022/09/10 03:12:52;;;;;;;;;;;15.20;99.90;;;;;;5088830;28;20375;-77
2022/09/10 03:15:19;;;;;;;;;;;15.20;99.90;;;;;;5072121;28;19925;-77
2022/09/10 03:17:45;;;;;;;;;;;15.20;99.90;;;;;;5038335;28;19925;-77
2022/09/10 03:20:11;;;;;;;;;;;15.20;99.90;;;;;;5078862;28;19986;-77
2022/09/10 03:22:37;;;;;;;;;;;15.20;99.90;;;;;;5067636;28;20000;-77
2022/09/10 03:25:03;;;;;;;;;;;15.20;99.90;;;;;;5057256;28;20372;-77
2022/09/10 03:27:29;;;;;;;;;;;15.30;99.90;;;;;;5091631;28;19931;-77
2022/09/10 03:29:55;;;;;;;;;;;15.20;99.90;;;;;;5063263;28;19925;-77
2022/09/10 03:32:20;;;;;;;;;;;15.30;99.90;;;;;;5109123;28;19931;-77
2022/09/10 03:34:47;;;;;;;;;;;15.20;99.90;;;;;;5108906;28;19924;-77
2022/09/10 03:37:14;;;;;;;;;;;15.20;99.90;;;;;;5109068;28;19924;-77
2022/09/10 03:39:39;;;;;;;;;;;15.20;99.90;;;;;;5073573;28;19931;-77
2022/09/10 03:42:06;;;;;;;;;;;15.20;99.90;;;;;;5092068;28;20279;-77
2022/09/10 03:44:32;;;;;;;;;;;15.20;99.90;;;;;;5091410;28;20329;-77
2022/09/10 03:47:01;;;;;;;;;;;15.20;99.90;;;;;;5108594;28;19934;-77
2022/09/10 03:49:27;;;;;;;;;;;15.30;99.90;;;;;;5054637;28;19942;-77
2022/09/10 03:51:52;;;;;;;;;;;15.20;99.90;;;;;;5088644;28;20015;-77
2022/09/10 03:54:18;;;;;;;;;;;15.20;99.90;;;;;;5088641;28;19936;-77
2022/09/10 03:56:44;;;;;;;;;;;15.20;99.90;;;;;;5071487;28;20019;-77
2022/09/10 03:59:12;;;;;;;;;;;15.20;99.90;;;;;;5088269;28;19924;-77
2022/09/10 04:01:37;;;;;;;;;;;15.20;99.90;;;;;;5055660;28;20336;-77
2022/09/10 04:04:03;;;;;;;;;;;15.10;99.90;;;;;;5088638;28;19967;-77
2022/09/10 04:06:31;;;;;;;;;;;15.10;99.90;;;;;;5071519;28;20292;-77
2022/09/10 04:08:57;;;;;;;;;;;15.10;99.90;;;;;;5054896;28;19925;-77
2022/09/10 04:11:26;;;;;;;;;;;15.10;99.90;;;;;;5055863;28;19929;-77
2022/09/10 04:13:52;;;;;;;;;;;15.10;99.90;;;;;;5071138;28;19946;-77
2022/09/10 04:16:18;;;;;;;;;;;15.10;99.90;;;;;;5088491;28;19936;-77
2022/09/10 04:18:44;;;;;;;;;;;15.10;99.90;;;;;;5037199;28;19925;-77
2022/09/10 04:21:10;;;;;;;;;;;15.10;99.90;;;;;;5072096;28;19946;-77
2022/09/10 04:23:36;;;;;;;;;;;15.00;99.90;;;;;;5092506;28;19925;-77
2022/09/10 04:26:21;;;;;;;;;;;15.00;99.90;;;;;;5066884;28;19931;-77
2022/09/10 04:28:47;;;;;;;;;;;15.00;99.90;;;;;;5094846;28;19924;-77
2022/09/10 04:31:12;;;;;;;;;;;15.00;99.90;;;;;;5112253;28;20011;-77
2022/09/10 04:33:38;;;;;;;;;;;15.00;99.90;;;;;;5060631;28;19928;-77
2022/09/10 04:36:03;;;;;;;;;;;15.00;99.90;;;;;;5078029;28;20022;-77
2022/09/10 04:38:29;;;;;;;;;;;15.00;99.90;;;;;;5111984;28;19924;-77
2022/09/10 04:40:56;;;;;;;;;;;15.00;99.90;;;;;;5111763;28;19924;-77
2022/09/10 04:43:24;;;;;;;;;;;15.00;99.90;;;;;;5072064;28;19970;-77
2022/09/10 04:45:50;;;;;;;;;;;14.90;99.90;;;;;;5057634;28;19928;-77
2022/09/10 04:48:16;;;;;;;;;;;14.90;99.90;;;;;;5057998;28;19925;-77
2022/09/10 04:50:41;;;;;;;;;;;14.90;99.90;;;;;;5074412;28;19925;-77
2022/09/10 04:53:07;;;;;;;;;;;14.90;99.90;;;;;;5074593;28;20011;-77
2022/09/10 04:55:33;;;;;;;;;;;14.90;99.90;;;;;;5077580;28;19930;-77
2022/09/10 04:57:59;;;;;;;;;;;14.90;99.90;;;;;;5061031;28;20279;-77
2022/09/10 05:00:25;;;;;;;;;;;14.90;99.90;;;;;;5111852;28;19982;-77
2022/09/10 05:02:51;;;;;;;;;;;14.90;99.90;;;;;;5094458;28;19924;-77
2022/09/10 05:05:17;;;;;;;;;;;14.90;99.90;;;;;;5040638;28;19924;-77
2022/09/10 05:07:42;;;;;;;;;;;14.90;99.90;;;;;;5083549;28;19924;-77
2022/09/10 05:10:09;;;;;;;;;;;14.90;99.90;;;;;;5077394;28;20291;-77
2022/09/10 05:12:36;;;;;;;;;;;14.90;99.90;;;;;;5077668;28;19924;-77
2022/09/10 05:15:02;;;;;;;;;;;14.90;99.90;;;;;;5075942;28;20006;-77
2022/09/10 05:17:28;;;;;;;;;;;14.90;99.90;;;;;;5043940;28;20376;-77
2022/09/10 05:19:53;;;;;;;;;;;15.00;99.90;;;;;;5111100;28;19931;-77
2022/09/10 05:22:20;;;;;;;;;;;15.00;99.90;;;;;;5060861;28;19924;-77
2022/09/10 05:24:46;;;;;;;;;;;15.00;99.90;;;;;;5058604;28;20011;-77
2022/09/10 05:27:11;;;;;;;;;;;15.00;99.90;;;;;;5086931;28;20007;-77
2022/09/10 05:29:37;;;;;;;;;;;15.00;99.90;;;;;;5056595;28;20101;-77
2022/09/10 05:32:03;;;;;;;;;;;15.10;99.90;;;;;;5057431;28;19931;-77
2022/09/10 05:34:28;;;;;;;;;;;15.10;99.90;;;;;;5057169;28;19932;-77
2022/09/10 05:36:55;;;;;;;;;;;15.10;99.90;;;;;;5066624;28;19928;-77
2022/09/10 05:39:20;;;;;;;;;;;15.20;99.90;;;;;;5115709;27;19924;-77
2022/09/10 05:41:46;;;;;;;;;;;15.20;99.90;;;;;;5076566;28;19924;-77
2022/09/10 05:44:11;;;;;;;;;;;15.20;99.90;;;;;;5076939;28;19974;-77
2022/09/10 05:46:37;;;;;;;;;;;15.30;99.90;;;;;;5058081;28;20268;-77
2022/09/10 05:49:03;;;;;;;;;;;15.20;99.90;;;;;;5059973;28;20018;-77
2022/09/10 05:51:29;;;;;;;;;;;15.30;99.90;;;;;;5043506;28;19924;-77
2022/09/10 05:53:56;;;;;;;;;;;15.30;99.90;;;;;;5093385;28;19924;-77
2022/09/10 05:56:22;;;;;;;;;;;15.30;99.90;;;;;;5075199;28;19925;-77
2022/09/10 05:58:48;;;;;;;;;;;15.40;99.90;;;;;;5093151;28;20359;-77
2022/09/10 06:01:14;;;;;;;;;;;15.40;99.90;;;;;;5043355;28;19924;-77
2022/09/10 06:03:39;;;;;;;;;;;15.30;99.90;;;;;;5059924;28;20291;-77
2022/09/10 06:06:05;;;;;;;;;;;15.40;99.90;;;;;;5110254;28;20271;-77
2022/09/10 06:08:31;;;;;;;;;;;15.40;99.90;;;;;;5090356;28;19972;-77
2022/09/10 06:10:59;;;;;;;;;;;15.40;99.90;;;;;;5079133;28;19931;-77
2022/09/10 06:13:25;;;;;;;;;;;15.40;99.90;;;;;;5059658;28;20007;-77
2022/09/10 06:15:51;;;;;;;;;;;15.40;99.90;;;;;;5059508;28;19924;-77
2022/09/10 06:18:16;;;;;;;;;;;15.40;99.90;;;;;;5106333;27;19955;-77
2022/09/10 06:20:42;;;;;;;;;;;15.40;99.90;;;;;;5084720;28;20352;-77
2022/09/10 06:23:07;;;;;;;;;;;15.40;99.90;;;;;;5077487;28;19955;-77
2022/09/10 06:25:33;;;;;;;;;;;15.30;99.90;;;;;;5097943;28;20368;-77
2022/09/10 06:28:00;;;;;;;;;;;15.40;99.90;;;;;;5089028;28;19987;-77
2022/09/10 06:30:26;;;;;;;;;;;15.30;99.90;;;;;;5072135;28;20031;-78
2022/09/10 06:32:51;;;;;;;;;;;15.40;99.90;;;;;;5058547;28;20337;-77
2022/09/10 06:35:17;;;;;;;;;;;15.40;99.90;;;;;;5048292;28;19924;-77
2022/09/10 06:37:44;;;;;;;;;;;15.40;99.90;;;;;;5049500;28;19928;-77
2022/09/10 06:40:09;;;;;;;;;;;15.50;99.90;;;;;;5095238;28;19997;-77
2022/09/10 06:42:35;;;;;;;;;;;15.50;99.90;;;;;;5069308;28;20376;-77
2022/09/10 06:45:00;;;;;;;;;;;15.50;99.90;;;;;;5068721;28;19928;-77
2022/09/10 06:47:26;;;;;;;;;;;15.60;99.90;;;;;;5069445;28;19985;-77
2022/09/10 06:49:51;;;;;;;;;;;15.60;99.90;;;;;;5051971;28;19935;-79
2022/09/10 06:52:17;;;;;;;;;;;15.70;99.90;;;;;;5043860;28;19962;-77
2022/09/10 06:54:42;;;;;;;;;;;15.70;99.90;;;;;;5038822;28;19983;-77
2022/09/10 06:57:09;;;;;;;;;;;15.80;99.90;;;;;;5047155;28;19936;-77
2022/09/10 06:59:34;;;;;;;;;;;15.90;99.90;;;;;;5065748;28;19943;-77
2022/09/10 07:02:01;;;;;;;;;;;15.90;99.90;;;;;;5029554;28;19932;-77
2022/09/10 07:04:26;;;;;;;;;;;15.90;99.90;;;;;;5061611;28;20067;-77
2022/09/10 07:06:52;;;;;;;;;;;16.00;99.90;;;;;;5052130;28;20011;-77
2022/09/10 07:09:17;;;;;;;;;;;16.00;99.90;;;;;;5083456;28;19939;-77
2022/09/10 07:11:43;;;;;;;;;;;16.00;99.90;;;;;;5101858;28;20431;-77
2022/09/10 07:14:09;;;;;;;;;;;16.00;99.90;;;;;;5094401;28;20387;-76
2022/09/10 07:16:35;;;;;;;;;;;16.00;99.90;;;;;;5069135;28;19929;-79
2022/09/10 07:19:00;;;;;;;;;;;16.10;99.90;;;;;;5082075;28;19986;-75
2022/09/10 07:21:26;;;;;;;;;;;16.00;99.90;;;;;;5051533;28;19925;-77
2022/09/10 07:23:56;;;;;;;;;;;16.10;99.90;;;;;;5067679;28;19958;-76
2022/09/10 07:26:22;;;;;;;;;;;16.20;99.90;;;;;;5074301;28;19971;-77
2022/09/10 07:28:47;;;;;;;;;;;16.30;99.90;;;;;;5099029;28;19968;-76
2022/09/10 07:31:17;;;;;;;;;;;16.30;99.90;;;;;;5032207;28;20303;-77
2022/09/10 07:33:43;;;;;;;;;;;16.40;99.90;;;;;;5058106;28;20031;-77
2022/09/10 07:36:09;;;;;;;;;;;16.40;99.90;;;;;;5057844;28;20436;-77
2022/09/10 07:38:38;;;;;;;;;;;16.50;99.90;;;;;;5068879;28;20549;-77
2022/09/10 07:41:04;;;;;;;;;;;16.60;99.90;;;;;;5102223;28;20275;-77
2022/09/10 07:43:30;;;;;;;;;;;16.60;99.90;;;;;;5069091;28;19924;-76
2022/09/10 07:45:55;;;;;;;;;;;16.70;99.90;;;;;;5051655;28;19932;-77
2022/09/10 07:48:21;;;;;;;;;;;16.80;99.90;;;;;;5065203;28;19959;-81
2022/09/10 07:50:47;;;;;;;;;;;16.80;99.90;;;;;;5064669;28;19955;-78
2022/09/10 07:53:13;;;;;;;;;;;16.70;99.90;;;;;;5094591;28;19983;-75
2022/09/10 07:55:38;;;;;;;;;;;16.80;99.90;;;;;;5064661;28;20023;-79
2022/09/10 07:58:04;;;;;;;;;;;16.90;99.90;;;;;;5067060;28;20014;-76
2022/09/10 08:00:30;;;;;;;;;;;16.90;99.90;;;;;;5052524;28;20359;-76
2022/09/10 08:02:56;;;;;;;;;;;16.90;99.90;;;;;;5055422;28;19935;-77
2022/09/10 08:05:22;;;;;;;;;;;17.00;99.90;;;;;;5055629;28;19938;-76
2022/09/10 08:07:51;;;;;;;;;;;17.00;99.90;;;;;;5071741;28;19929;-76
2022/09/10 08:10:16;;;;;;;;;;;17.00;99.90;;;;;;5068246;28;19979;-76
2022/09/10 08:12:42;;;;;;;;;;;17.10;99.90;;;;;;5073612;28;19975;-76
2022/09/10 08:15:09;;;;;;;;;;;17.20;99.90;;;;;;5062871;28;20499;-77
2022/09/10 08:17:35;;;;;;;;;;;17.20;99.90;;;;;;5055325;28;19939;-78
2022/09/10 08:20:05;;;;;;;;;;;17.30;99.90;;;;;;5099631;28;19931;-76
2022/09/10 08:22:31;;;;;;;;;;;17.20;99.90;;;;;;5074719;28;19954;-77
2022/09/10 08:24:57;;;;;;;;;;;17.20;99.90;;;;;;5057846;28;19954;-78
2022/09/10 08:27:23;;;;;;;;;;;17.30;99.90;;;;;;5083577;28;19928;-77
2022/09/10 08:29:49;;;;;;;;;;;17.30;99.90;;;;;;5082394;28;20382;-77
2022/09/10 08:32:14;;;;;;;;;;;17.30;99.90;;;;;;5040060;28;19928;-77
2022/09/10 08:34:40;;;;;;;;;;;17.40;99.90;;;;;;5100331;28;20053;-77
2022/09/10 08:37:06;;;;;;;;;;;17.40;99.90;;;;;;5057746;28;20424;-77
2022/09/10 08:39:32;;;;;;;;;;;17.40;99.90;;;;;;5074401;28;19954;-77
2022/09/10 08:41:59;;;;;;;;;;;17.40;99.90;;;;;;5082866;28;19932;-76
2022/09/10 08:44:40;;;;;;;;;;;17.40;99.90;;;;;;5056252;28;19977;-77
2022/09/10 08:47:16;;;;;;;;;;;17.40;99.90;;;;;;5055240;28;20405;-77
2022/09/10 08:49:53;;;;;;;;;;;17.50;99.90;;;;;;5057942;28;19954;-77
2022/09/10 08:52:38;;;;;;;;;;;17.50;99.90;;;;;;5074668;28;19934;-77
2022/09/10 08:55:15;;;;;;;;;;;17.50;99.90;;;;;;5099566;28;19924;-79
2022/09/10 08:57:45;;;;;;;;;;;17.50;99.90;;;;;;5072698;28;19934;-77
2022/09/10 09:00:13;;;;;;;;;;;17.60;99.90;;;;;;5057383;28;19928;-78
2022/09/10 09:03:01;;;;;;;;;;;17.70;99.90;;;;;;5080638;28;19925;-78
2022/09/10 09:05:28;;;;;;;;;;;17.70;99.90;;;;;;5071976;28;19924;-77
2022/09/10 09:07:57;;;;;;;;;;;17.80;99.90;;;;;;5081957;28;19932;-77
2022/09/10 09:10:42;;;;;;;;;;;17.90;99.90;;;;;;5073986;28;19974;-78
2022/09/10 09:13:14;;;;;;;;;;;17.90;99.90;;;;;;5095629;28;20009;-77
2022/09/10 09:15:40;;;;;;;;;;;17.90;99.90;;;;;;5081936;28;19935;-77
2022/09/10 09:18:18;;;;;;;;;;;17.90;99.90;;;;;;5054294;28;20021;-78
2022/09/10 09:20:45;;;;;;;;;;;18.00;99.90;;;;;;5082623;28;19928;-77
2022/09/10 09:23:32;;;;;;;;;;;18.00;99.90;;;;;;5097765;28;20402;-77
2022/09/10 09:26:03;;;;;;;;;;;18.10;99.90;;;;;;5098789;28;20420;-78
2022/09/10 09:28:40;;;;;;;;;;;18.20;99.90;;;;;;5083072;28;19963;-77
2022/09/10 09:31:12;;;;;;;;;;;18.20;99.90;;;;;;5097253;28;19966;-79
2022/09/10 09:33:39;;;;;;;;;;;18.30;99.90;;;;;;5057237;28;20001;-78
2022/09/10 09:36:05;;;;;;;;;;;18.30;99.90;;;;;;5078075;28;19924;-78
2022/09/10 09:38:42;;;;;;;;;;;18.30;99.90;;;;;;5040233;28;19924;-78
2022/09/10 09:41:15;;;;;;;;;;;18.30;99.90;;;;;;5097787;28;19929;-79
2022/09/10 09:43:41;;;;;;;;;;;18.30;99.90;;;;;;5073963;28;20269;-79
2022/09/10 09:46:11;;;;;;;;;;;18.30;99.90;;;;;;5088749;28;19924;-79
2022/09/10 09:48:38;;;;;;;;;;;18.30;99.90;;;;;;5073659;28;19924;-79
2022/09/10 09:51:06;;;;;;;;;;;18.30;99.90;;;;;;5057498;28;19924;-77
2022/09/10 09:53:32;;;;;;;;;;;18.40;99.90;;;;;;5096029;28;19924;-79
2022/09/10 09:55:59;;;;;;;;;;;18.50;99.90;;;;;;5084248;28;20382;-79
2022/09/10 09:58:27;;;;;;;;;;;18.70;99.90;;;;;;5104004;28;20388;-81
2022/09/10 10:01:04;;;;;;;;;;;18.80;99.90;;;;;;5053304;28;19931;-77
2022/09/10 10:03:29;;;;;;;;;;;18.80;99.90;;;;;;5057817;28;20056;-77
2022/09/10 10:06:06;;;;;;;;;;;18.90;99.90;;;;;;5093857;28;19932;-77
2022/09/10 10:08:36;;;;;;;;;;;19.00;99.90;;;;;;5039982;28;19925;-77
2022/09/10 10:11:02;;;;;;;;;;;18.90;99.90;;;;;;5072479;28;19963;-77
2022/09/10 10:13:38;;;;;;;;;;;19.00;99.90;;;;;;5075719;28;19950;-77
2022/09/10 10:16:16;;;;;;;;;;;18.90;99.90;;;;;;5076145;28;19972;-77
2022/09/10 10:18:42;;;;;;;;;;;18.90;99.90;;;;;;5109860;28;20382;-77
2022/09/10 10:21:07;;;;;;;;;;;18.90;99.90;;;;;;5058415;28;20367;-77
2022/09/10 10:23:37;;;;;;;;;;;19.00;99.90;;;;;;5092263;28;19924;-77
2022/09/10 10:26:19;;;;;;;;;;;19.10;99.90;;;;;;5096024;28;20017;-77
2022/09/10 10:29:05;;;;;;;;;;;19.10;99.90;;;;;;5089927;28;19924;-77
2022/09/10 10:31:34;;;;;;;;;;;19.20;99.90;;;;;;5089723;28;19925;-77
2022/09/10 10:34:13;;;;;;;;;;;19.30;99.90;;;;;;5039516;28;19924;-77
2022/09/10 10:36:45;;;;;;;;;;;19.40;99.90;;;;;;5085996;28;20019;-77
2022/09/10 10:39:18;;;;;;;;;;;19.60;99.90;;;;;;5074783;28;19950;-77
2022/09/10 10:41:51;;;;;;;;;;;19.70;99.90;;;;;;5059180;28;19931;-77
2022/09/10 10:44:17;;;;;;;;;;;19.70;99.90;;;;;;5075275;28;19925;-77
2022/09/10 10:46:58;;;;;;;;;;;20.00;99.90;;;;;;5097960;28;19931;-77
2022/09/10 10:49:31;;;;;;;;;;;20.10;99.90;;;;;;5075583;28;20018;-77
2022/09/10 10:52:09;;;;;;;;;;;20.10;99.90;;;;;;5075926;28;19927;-77
2022/09/10 10:54:47;;;;;;;;;;;20.20;99.90;;;;;;5058681;28;20003;-77
2022/09/10 10:57:15;;;;;;;;;;;20.10;99.90;;;;;;5074977;28;20015;-77
2022/09/10 10:59:41;;;;;;;;;;;20.10;99.90;;;;;;5109254;28;19924;-77
2022/09/10 11:02:13;;;;;;;;;;;20.10;99.90;;;;;;5109607;28;19924;-77
2022/09/10 11:04:42;;;;;;;;;;;20.10;99.90;;;;;;5109574;28;19935;-77
2022/09/10 11:07:15;;;;;;;;;;;20.10;99.90;;;;;;5091003;28;19928;-77
2022/09/10 11:09:50;;;;;;;;;;;20.00;99.90;;;;;;5072248;28;19932;-77
2022/09/10 11:12:23;;;;;;;;;;;20.00;99.90;;;;;;5088713;28;19986;-77
2022/09/10 11:14:59;;;;;;;;;;;20.10;99.90;;;;;;5089086;28;19934;-77
2022/09/10 11:17:28;;;;;;;;;;;20.20;99.90;;;;;;5050859;28;20019;-77
2022/09/10 11:20:11;;;;;;;;;;;20.30;99.90;;;;;;5080903;28;19931;-77
2022/09/10 11:22:40;;;;;;;;;;;20.40;99.90;;;;;;5092309;28;19931;-77
2022/09/10 11:25:15;;;;;;;;;;;20.60;99.90;;;;;;5109432;28;19924;-77
2022/09/10 11:27:43;;;;;;;;;;;20.70;99.90;;;;;;5088409;28;19931;-77
2022/09/10 11:30:15;;;;;;;;;;;20.90;99.90;;;;;;5088825;28;19926;-77
2022/09/10 11:32:43;;;;;;;;;;;21.00;99.90;;;;;;5059466;28;20363;-77
2022/09/10 11:35:09;;;;;;;;;;;21.10;99.90;;;;;;5078268;28;19974;-77
2022/09/10 11:37:53;;;;;;;;;;;21.10;99.90;;;;;;5062656;28;19924;-77
2022/09/10 11:40:25;;;;;;;;;;;21.20;99.90;;;;;;5044584;28;19925;-77
2022/09/10 11:42:53;;;;;;;;;;;21.30;99.90;;;;;;5065240;28;19932;-77
2022/09/10 11:45:30;;;;;;;;;;;21.30;99.90;;;;;;5062307;28;19967;-77
2022/09/10 11:47:59;;;;;;;;;;;21.40;99.90;;;;;;5113305;28;19931;-77
2022/09/10 11:50:30;;;;;;;;;;;21.60;99.90;;;;;;5112188;28;19924;-77
2022/09/10 11:52:58;;;;;;;;;;;21.90;99.90;;;;;;5110443;28;19989;-77
2022/09/10 11:55:30;;;;;;;;;;;22.20;99.90;;;;;;5078276;28;19932;-77
2022/09/10 11:58:10;;;;;;;;;;;22.30;99.90;;;;;;5079129;28;19924;-77
2022/09/10 12:00:44;;;;;;;;;;;22.50;99.90;;;;;;5113125;28;20056;-77
2022/09/10 12:03:23;;;;;;;;;;;23.00;99.90;;;;;;5098450;28;19925;-77
2022/09/10 12:05:57;;;;;;;;;;;23.20;99.90;;;;;;5058873;28;20281;-77
2022/09/10 12:08:28;;;;;;;;;;;23.30;99.90;;;;;;5078437;28;20333;-77
2022/09/10 12:10:56;;;;;;;;;;;23.40;99.90;;;;;;5078870;28;19978;-77
2022/09/10 12:13:22;;;;;;;;;;;23.30;99.90;;;;;;5076833;28;20256;-77
2022/09/10 12:15:56;;;;;;;;;;;23.00;99.90;;;;;;5112359;28;19928;-76
2022/09/10 12:18:24;;;;;;;;;;;22.80;99.90;;;;;;5078445;28;19924;-76
2022/09/10 12:20:52;;;;;;;;;;;22.70;99.90;;;;;;5112391;28;19924;-77
2022/09/10 12:23:38;;;;;;;;;;;22.50;99.90;;;;;;5077399;28;20075;-76
2022/09/10 12:26:13;;;;;;;;;;;22.30;99.90;;;;;;5061815;28;19982;-76
2022/09/10 12:28:41;;;;;;;;;;;22.30;99.90;;;;;;5078380;28;20295;-76
2022/09/10 12:31:08;;;;;;;;;;;22.20;99.90;;;;;;5078516;28;19924;-76
2022/09/10 12:33:56;;;;;;;;;;;22.30;99.90;;;;;;5111497;28;20016;-76
2022/09/10 12:36:25;;;;;;;;;;;22.40;99.90;;;;;;5082945;28;19942;-76
2022/09/10 12:39:09;;;;;;;;;;;22.50;99.90;;;;;;5058088;28;20366;-76
2022/09/10 12:41:35;;;;;;;;;;;22.50;99.90;;;;;;5076977;28;19925;-76
2022/09/10 12:44:20;;;;;;;;;;;22.40;99.90;;;;;;5072415;28;20265;-76
2022/09/10 12:46:46;;;;;;;;;;;22.40;99.90;;;;;;5090878;28;19994;-75
2022/09/10 12:49:12;;;;;;;;;;;22.50;99.90;;;;;;5091802;28;20360;-76
2022/09/10 12:51:37;;;;;;;;;;;22.70;99.90;;;;;;5091510;28;20035;-76
2022/09/10 12:54:03;;;;;;;;;;;22.80;99.90;;;;;;5076607;28;20388;-76
2022/09/10 12:56:37;;;;;;;;;;;22.90;99.90;;;;;;5074711;28;19990;-76
2022/09/10 12:59:17;;;;;;;;;;;23.00;99.90;;;;;;5081787;28;19971;-76
2022/09/10 13:01:45;;;;;;;;;;;22.90;99.90;;;;;;5077902;28;19985;-76
2022/09/10 13:04:19;;;;;;;;;;;22.90;99.90;;;;;;5059604;28;19928;-76
2022/09/10 13:06:46;;;;;;;;;;;23.00;99.90;;;;;;5057629;28;19924;-76
2022/09/10 13:09:16;;;;;;;;;;;23.10;99.90;;;;;;5063986;28;20380;-76
2022/09/10 13:11:44;;;;;;;;;;;23.20;99.90;;;;;;5060475;28;20011;-76
2022/09/10 13:14:14;;;;;;;;;;;23.00;99.90;;;;;;5077617;28;19969;-76
2022/09/10 13:16:40;;;;;;;;;;;22.90;99.90;;;;;;5077661;28;19924;-76
2022/09/10 13:19:12;;;;;;;;;;;23.20;99.90;;;;;;5058195;28;19931;-77
2022/09/10 13:21:37;;;;;;;;;;;23.20;99.90;;;;;;5057388;28;20284;-76
2022/09/10 13:24:23;;;;;;;;;;;23.30;99.90;;;;;;5068784;28;19924;-76
2022/09/10 13:26:51;;;;;;;;;;;23.50;99.90;;;;;;5076635;28;19935;-76
2022/09/10 13:29:46;;;;;;;;;;;24.50;99.90;;;;;;5077447;28;20402;-77
2022/09/10 13:32:12;;;;;;;;;;;25.20;99.90;;;;;;5056639;28;19935;-76
2022/09/10 13:35:03;;;;;;;;;;;25.90;99.90;;;;;;5094780;28;20006;-77
2022/09/10 13:37:35;;;;;;;;;;;26.50;99.90;;;;;;5084309;28;19928;-76
2022/09/10 13:40:19;;;;;;;;;;;27.40;99.90;;;;;;5076894;28;19924;-77
2022/09/10 13:43:17;;;;;;;;;;;27.80;99.90;;;;;;5057079;28;19925;-77
2022/09/10 13:45:52;;;;;;;;;;;27.50;99.90;;;;;;5034347;28;20260;-77
2022/09/10 13:48:19;;;;;;;;;;;27.40;99.90;;;;;;5073786;28;20061;-77
2022/09/10 13:51:00;;;;;;;;;;;27.70;99.90;;;;;;5057790;28;19924;-77
2022/09/10 13:53:27;;;;;;;;;;;27.60;99.90;;;;;;5090571;28;19971;-77
2022/09/10 13:56:00;;;;;;;;;;;27.60;99.90;;;;;;5087000;28;19959;-77
2022/09/10 13:58:30;;;;;;;;;;;27.40;99.90;;;;;;5067225;28;20410;-77
2022/09/10 14:01:02;;;;;;;;;;;27.90;99.90;;;;;;5059981;28;19931;-77
2022/09/10 14:03:32;;;;;;;;;;;28.30;99.90;;;;;;5057638;28;19925;-77
2022/09/10 14:06:03;;;;;;;;;;;28.70;99.90;;;;;;5073301;28;19924;-77
2022/09/10 14:08:30;;;;;;;;;;;29.10;99.90;;;;;;5097829;28;20387;-77
2022/09/10 14:11:22;;;;;;;;;;;29.50;99.90;;;;;;5076121;28;19928;-77
2022/09/10 14:13:54;;;;;;;;;;;29.60;99.90;;;;;;5070513;28;20368;-77
2022/09/10 14:16:32;;;;;;;;;;;29.60;99.20;;;;;;5056876;28;20033;-77
2022/09/10 14:19:00;;;;;;;;;;;29.20;99.70;;;;;;5049162;28;20065;-77
2022/09/10 14:21:26;;;;;;;;;;;29.60;99.90;;;;;;5059844;28;19950;-77
2022/09/10 14:23:54;;;;;;;;;;;29.80;98.00;;;;;;5044803;28;19925;-77
2022/09/10 14:26:24;;;;;;;;;;;30.20;99.20;;;;;;5089902;28;19932;-77
2022/09/10 14:28:50;;;;;;;;;;;30.60;98.50;;;;;;5095372;28;20369;-77